Terminal Aerodrome Forecast
Issued by NWS St Louis, MO

Home | Current Version | Previous Version | Text Only | Print | Product List | Glossary On
Versions: 1 2 3 4 5 6 7 8 9 10 11 12 13 14 15 16 17 18 19 20 21 22 23 24 25 26 27 28 29
000
FTUS43 KLSX 261900 AAA
TAFSTL
TAF AMD
KSTL 261905Z 2619/2724 14008KT 3/4SM -SN BR OVC007
     FM262100 16006KT 5SM -SNRA BR OVC010
     FM270000 29007KT 6SM BR VCSH OVC012
     FM270600 32011KT P6SM OVC015
     FM271400 31012KT P6SM BKN020
     FM271800 31010KT P6SM SCT025 BKN250=

USA.gov is the U.S. government's official web portal to all federal, state and local government web resources and services.